Time;durP1;ratioP1;P1;durP2;ratioP2;P2;SDS_P1;SDS_P2;PMS_P1;PMS_P2;Temp;Humidity;BMP_temperature;BMP_pressure;BME280_temperature;BME280_humidity;BME280_pressure;Samples;Min_cycle;Max_cycle;Signal;HPM_P1;HPM_P2
2023/01/04 00:01:23;;;;;;;2.00;1.23;;;;;3.90;95082.00;;;;7401317;19;20161;-75
2023/01/04 00:04:04;;;;;;;2.53;1.20;;;;;3.70;95073.00;;;;7401396;19;20152;-74
2023/01/04 00:06:38;;;;;;;3.63;1.30;;;;;3.60;95070.00;;;;7401827;19;20147;-74
2023/01/04 00:09:12;;;;;;;3.03;1.20;;;;;3.60;95067.00;;;;7399832;19;20204;-75
2023/01/04 00:11:40;;;;;;;1.60;1.07;;;;;3.80;95071.00;;;;7402623;19;20623;-73
2023/01/04 00:14:16;;;;;;;2.60;1.00;;;;;3.70;95069.00;;;;7402410;19;20169;-74
2023/01/04 00:16:49;;;;;;;0.80;0.80;;;;;3.80;95070.00;;;;7401253;19;20193;-76
2023/01/04 00:19:17;;;;;;;1.87;1.10;;;;;3.80;95065.00;;;;7401899;19;20225;-75
2023/01/04 00:21:45;;;;;;;3.00;0.90;;;;;3.70;95060.00;;;;7401785;19;20159;-74
2023/01/04 00:24:23;;;;;;;3.97;0.90;;;;;3.60;95061.00;;;;7402517;19;20154;-75
2023/01/04 00:26:51;;;;;;;5.20;0.90;;;;;3.50;95061.00;;;;7402191;19;20146;-75
2023/01/04 00:29:18;;;;;;;2.20;0.90;;;;;3.50;95067.00;;;;7403230;19;20156;-75
2023/01/04 00:31:52;;;;;;;0.80;0.80;;;;;3.40;95054.00;;;;7401735;19;20145;-74
2023/01/04 00:34:20;;;;;;;0.73;0.73;;;;;3.40;95057.00;;;;7402687;19;20133;-76
2023/01/04 00:36:47;;;;;;;0.57;0.57;;;;;3.30;95057.00;;;;7402408;19;20132;-75
2023/01/04 00:39:21;;;;;;;2.53;0.90;;;;;3.40;95049.00;;;;7401267;19;20125;-75
2023/01/04 00:41:51;;;;;;;1.43;0.90;;;;;3.30;95049.00;;;;7400484;19;20129;-75
2023/01/04 00:44:28;;;;;;;0.80;0.70;;;;;3.40;95043.00;;;;7401613;19;20157;-76
2023/01/04 00:47:03;;;;;;;1.77;0.80;;;;;3.40;95040.00;;;;7400892;19;20164;-75
2023/01/04 00:49:31;;;;;;;1.00;0.87;;;;;3.40;95043.00;;;;7400847;19;20741;-76
2023/01/04 00:51:59;;;;;;;1.20;0.90;;;;;3.50;95033.00;;;;7401518;19;20168;-76
2023/01/04 00:54:33;;;;;;;0.83;0.70;;;;;3.40;95033.00;;;;7400700;19;20148;-76
2023/01/04 00:57:00;;;;;;;1.20;0.90;;;;;3.50;95032.00;;;;7400131;19;20116;-76
2023/01/04 00:59:30;;;;;;;0.97;0.90;;;;;3.50;95021.00;;;;7400788;19;20147;-77
2023/01/04 01:02:04;;;;;;;9.00;1.27;;;;;3.50;95022.00;;;;7400792;19;20182;-76
2023/01/04 01:04:38;;;;;;;0.70;0.67;;;;;3.50;95027.00;;;;7400927;19;20168;-74
2023/01/04 01:07:20;;;;;;;4.43;0.87;;;;;3.50;95028.00;;;;7402260;19;20165;-76
2023/01/04 01:09:47;;;;;;;2.10;0.90;;;;;3.50;95037.00;;;;7400395;19;20133;-75
2023/01/04 01:12:21;;;;;;;4.07;0.90;;;;;3.50;95031.00;;;;7399844;19;20125;-75
2023/01/04 01:14:48;;;;;;;0.60;0.60;;;;;3.50;95035.00;;;;7402393;19;20136;-75
2023/01/04 01:17:16;;;;;;;5.93;1.03;;;;;3.60;95027.00;;;;7400086;19;20149;-75
2023/01/04 01:19:50;;;;;;;1.40;1.10;;;;;3.60;95030.00;;;;7400505;19;20124;-74
2023/01/04 01:22:18;;;;;;;0.97;0.80;;;;;3.60;95033.00;;;;7400824;19;20615;-75
2023/01/04 01:24:45;;;;;;;3.70;1.10;;;;;3.60;95036.00;;;;7401325;19;20156;-76
2023/01/04 01:27:19;;;;;;;1.30;0.97;;;;;3.70;95039.00;;;;7401838;19;20471;-75
2023/01/04 01:29:46;;;;;;;1.70;0.97;;;;;3.80;95042.00;;;;7401761;19;20591;-75
2023/01/04 01:32:14;;;;;;;1.70;0.83;;;;;3.70;95040.00;;;;7400289;19;20166;-76
2023/01/04 01:34:48;;;;;;;2.17;1.20;;;;;3.80;95033.00;;;;7399100;19;20136;-75
2023/01/04 01:37:15;;;;;;;1.40;1.13;;;;;3.90;95036.00;;;;7401152;19;20208;-76
2023/01/04 01:39:43;;;;;;;2.87;1.03;;;;;3.90;95039.00;;;;7399810;19;20212;-75
2023/01/04 01:42:22;;;;;;;1.27;1.03;;;;;3.90;95045.00;;;;7399207;19;20148;-76
2023/01/04 01:45:01;;;;;;;3.20;1.20;;;;;4.10;95038.00;;;;7400044;19;20616;-76
2023/01/04 01:47:42;;;;;;;1.20;0.87;;;;;4.00;95038.00;;;;7398468;19;20151;-74
2023/01/04 01:50:26;;;;;;;2.87;1.20;;;;;3.90;95033.00;;;;7399359;19;20512;-76
2023/01/04 01:53:04;;;;;;;2.03;1.13;;;;;4.00;95032.00;;;;7399650;19;20137;-75
2023/01/04 01:55:35;;;;;;;2.40;0.73;;;;;3.90;95030.00;;;;7400691;19;20463;-75
2023/01/04 01:58:17;;;;;;;2.07;0.90;;;;;3.90;95034.00;;;;7395409;19;20616;-75
2023/01/04 02:00:44;;;;;;;1.53;1.17;;;;;4.00;95036.00;;;;7398371;19;20123;-76
2023/01/04 02:03:20;;;;;;;1.40;0.90;;;;;4.00;95034.00;;;;7397245;19;20173;-75
2023/01/04 02:05:57;;;;;;;1.93;1.10;;;;;3.90;95029.00;;;;7398258;19;20192;-75
2023/01/04 02:08:55;;;;;;;0.63;0.63;;;;;4.00;95028.00;;;;7396884;19;20154;-75
2023/01/04 02:11:31;;;;;;;1.47;1.03;;;;;3.90;95023.00;;;;7397539;19;20144;-76
2023/01/04 02:17:16;;;;;;;1.77;0.80;;;;;3.80;95019.00;;;;7399771;19;20152;-75
2023/01/04 02:19:59;;;;;;;1.43;0.80;;;;;3.80;95008.00;;;;7398091;19;20135;-75
2023/01/04 02:22:54;;;;;;;1.07;0.97;;;;;3.60;95009.00;;;;7397989;19;20537;-75
2023/01/04 02:25:31;;;;;;;2.53;0.90;;;;;3.50;95003.00;;;;7396900;19;20648;-74
2023/01/04 02:28:15;;;;;;;0.93;0.80;;;;;3.60;95002.00;;;;7399712;19;20129;-74
2023/01/04 02:31:22;;;;;;;1.43;0.60;;;;;3.50;95005.00;;;;7400301;19;20603;-75
2023/01/04 02:33:56;;;;;;;2.00;0.80;;;;;3.50;95003.00;;;;7389110;19;20143;-74
2023/01/04 02:36:56;;;;;;;1.93;0.90;;;;;3.60;94995.00;;;;7395910;19;20187;-74
2023/01/04 02:39:51;;;;;;;1.53;1.00;;;;;3.70;95000.00;;;;7397899;19;20644;-75
2023/01/04 02:45:50;;;;;;;1.90;0.70;;;;;4.00;94981.00;;;;7399042;19;20586;-76
2023/01/04 02:51:28;;;;;;;1.93;0.90;;;;;3.90;94973.00;;;;7398288;19;20616;-74
2023/01/04 02:54:15;;;;;;;2.23;0.50;;;;;3.90;94970.00;;;;7397395;19;20153;-75
2023/01/04 02:57:07;;;;;;;1.47;0.77;;;;;3.90;94966.00;;;;7397797;19;20446;-76
2023/01/04 02:59:58;;;;;;;0.77;0.57;;;;;4.00;94972.00;;;;7398884;19;20137;-75
2023/01/04 03:08:59;;;;;;;0.70;0.50;;;;;3.90;94965.00;;;;7396334;19;20168;-75
2023/01/04 03:14:50;;;;;;;2.07;0.63;;;;;3.90;94961.00;;;;7402561;19;20188;-76
2023/01/04 03:17:32;;;;;;;1.80;0.70;;;;;4.00;94967.00;;;;7404981;19;20133;-76
2023/01/04 03:20:00;;;;;;;1.33;0.87;;;;;4.00;94964.00;;;;7403715;19;20184;-76
2023/01/04 03:37:19;;;;;;;2.83;0.60;;;;;4.40;94947.00;;;;7405730;19;20129;-75
2023/01/04 03:49:56;;;;;;;2.70;0.67;;;;;4.50;94931.00;;;;7403849;19;20145;-74
2023/01/04 03:52:34;;;;;;;0.73;0.47;;;;;4.50;94928.00;;;;7404314;19;20145;-77
2023/01/04 03:55:04;;;;;;;0.67;0.67;;;;;4.50;94925.00;;;;7401671;19;20169;-75
2023/01/04 03:57:42;;;;;;;0.63;0.53;;;;;4.70;94921.00;;;;7403608;19;20124;-75
2023/01/04 04:00:13;;;;;;;1.67;0.60;;;;;4.80;94917.00;;;;7402125;19;20156;-77
2023/01/04 04:02:48;;;;;;;2.23;0.80;;;;;4.80;94916.00;;;;7401453;19;20187;-76
2023/01/04 04:08:28;;;;;;;0.83;0.60;;;;;4.80;94917.00;;;;7402756;19;20153;-75
2023/01/04 04:11:29;;;;;;;0.77;0.60;;;;;4.90;94913.00;;;;7402879;19;20156;-77
2023/01/04 04:13:58;;;;;;;1.50;0.53;;;;;4.90;94913.00;;;;7402656;19;20623;-75
2023/01/04 04:16:26;;;;;;;1.50;0.70;;;;;4.90;94911.00;;;;7403101;19;20145;-76
2023/01/04 04:18:54;;;;;;;2.23;0.77;;;;;5.10;94913.00;;;;7401838;19;20460;-75
2023/01/04 04:21:35;;;;;;;2.20;0.73;;;;;4.90;94904.00;;;;7400483;19;20136;-75
2023/01/04 04:24:03;;;;;;;0.73;0.53;;;;;4.90;94895.00;;;;7401487;19;20141;-75
2023/01/04 04:26:37;;;;;;;1.23;0.43;;;;;4.70;94893.00;;;;7401584;19;20216;-76
2023/01/04 04:29:04;;;;;;;4.83;0.77;;;;;4.80;94901.00;;;;7403754;19;20137;-76
2023/01/04 04:31:31;;;;;;;2.20;0.80;;;;;4.70;94897.00;;;;7402017;19;20157;-75
2023/01/04 04:34:06;;;;;;;1.27;0.60;;;;;4.60;94892.00;;;;7404058;19;20594;-75
2023/01/04 04:36:33;;;;;;;1.50;0.67;;;;;4.50;94909.00;;;;7401991;19;20124;-76
2023/01/04 04:39:03;;;;;;;2.30;0.87;;;;;4.50;94897.00;;;;7399577;19;20165;-74
2023/01/04 04:41:38;;;;;;;1.00;0.60;;;;;4.50;94895.00;;;;7402265;19;20139;-77
2023/01/04 04:44:17;;;;;;;2.50;0.90;;;;;4.30;94888.00;;;;7401731;19;20124;-77
2023/01/04 04:46:51;;;;;;;1.17;0.70;;;;;4.00;94884.00;;;;7401384;19;20170;-76
2023/01/04 04:49:18;;;;;;;1.47;0.60;;;;;4.00;94885.00;;;;7401910;19;20130;-76
2023/01/04 04:51:46;;;;;;;3.07;0.97;;;;;3.90;94887.00;;;;7399738;19;20157;-79
2023/01/04 04:54:21;;;;;;;2.57;0.63;;;;;4.00;94887.00;;;;7402810;19;20471;-76
2023/01/04 04:56:49;;;;;;;1.23;0.63;;;;;3.60;94893.00;;;;7399978;19;20141;-76
2023/01/04 04:59:17;;;;;;;2.60;0.70;;;;;3.50;94886.00;;;;7400231;19;20145;-76
2023/01/04 05:01:51;;;;;;;3.17;0.70;;;;;3.60;94879.00;;;;7400633;19;20199;-76
2023/01/04 05:04:18;;;;;;;3.13;0.97;;;;;3.80;94891.00;;;;7399564;19;20706;-76
2023/01/04 05:06:48;;;;;;;2.07;0.83;;;;;3.80;94875.00;;;;7401537;19;20144;-76
2023/01/04 05:09:26;;;;;;;1.73;0.60;;;;;3.80;94886.00;;;;7401093;19;20140;-75
2023/01/04 05:14:47;;;;;;;0.60;0.60;;;;;4.10;94872.00;;;;7397947;19;20437;-73
2023/01/04 05:17:16;;;;;;;2.87;0.70;;;;;4.10;94871.00;;;;7398919;19;20125;-76
2023/01/04 05:19:45;;;;;;;1.20;0.90;;;;;4.10;94875.00;;;;7398107;19;20588;-74
2023/01/04 05:22:19;;;;;;;0.70;0.70;;;;;4.00;94875.00;;;;7400290;19;20156;-75
2023/01/04 05:24:46;;;;;;;0.93;0.60;;;;;4.10;94891.00;;;;7399791;19;20121;-74
2023/01/04 05:27:14;;;;;;;0.80;0.80;;;;;4.20;94867.00;;;;7400468;19;20196;-75
2023/01/04 05:32:34;;;;;;;1.23;0.67;;;;;4.30;94877.00;;;;7398303;19;20497;-77
2023/01/04 05:35:08;;;;;;;1.33;0.70;;;;;4.30;94862.00;;;;7399569;19;20149;-75
2023/01/04 05:37:36;;;;;;;1.03;0.60;;;;;4.30;94872.00;;;;7400874;19;20629;-75
2023/01/04 05:40:03;;;;;;;1.93;0.80;;;;;4.20;94872.00;;;;7396485;19;20151;-75
2023/01/04 05:42:38;;;;;;;1.70;1.03;;;;;4.30;94867.00;;;;7401112;19;20452;-75
2023/01/04 05:45:06;;;;;;;1.60;0.80;;;;;4.20;94874.00;;;;7399086;19;20611;-77
2023/01/04 05:47:34;;;;;;;1.03;0.70;;;;;4.30;94860.00;;;;7399827;19;20121;-75
2023/01/04 05:50:09;;;;;;;3.17;0.73;;;;;4.20;94871.00;;;;7395265;19;20140;-76
2023/01/04 05:52:37;;;;;;;4.17;1.10;;;;;4.30;94872.00;;;;7396432;19;20487;-75
2023/01/04 05:55:04;;;;;;;0.70;0.70;;;;;4.20;94870.00;;;;7395046;19;20161;-75
2023/01/04 05:57:40;;;;;;;1.03;0.93;;;;;4.20;94877.00;;;;7397525;19;20575;-74
2023/01/04 06:00:09;;;;;;;1.23;0.83;;;;;4.30;94865.00;;;;7393024;19;20141;-75
2023/01/04 06:02:36;;;;;;;1.77;1.00;;;;;4.30;94866.00;;;;7392682;19;20176;-75
2023/01/04 06:05:27;;;;;;;1.33;1.00;;;;;4.30;94863.00;;;;7397628;19;20611;-74
2023/01/04 06:08:01;;;;;;;1.70;0.80;;;;;4.30;94860.00;;;;7397332;19;20603;-75
2023/01/04 06:10:35;;;;;;;2.33;0.93;;;;;4.30;94859.00;;;;7388023;19;20622;-74
2023/01/04 06:13:04;;;;;;;3.47;1.20;;;;;4.40;94862.00;;;;7395469;19;20149;-76
2023/01/04 06:15:32;;;;;;;2.30;0.90;;;;;4.20;94856.00;;;;7395152;19;20133;-77
2023/01/04 06:18:10;;;;;;;2.40;1.00;;;;;4.30;94856.00;;;;7394451;19;20149;-75
2023/01/04 06:20:41;;;;;;;1.67;1.07;;;;;4.40;94864.00;;;;7394891;19;20144;-76
2023/01/04 06:23:18;;;;;;;2.90;0.63;;;;;4.30;94855.00;;;;7395684;19;20176;-75
2023/01/04 06:25:45;;;;;;;2.07;1.00;;;;;4.30;94862.00;;;;7396068;19;20659;-76
2023/01/04 06:28:13;;;;;;;1.40;1.07;;;;;4.30;94860.00;;;;7392004;19;20140;-76
2023/01/04 06:30:47;;;;;;;1.47;1.10;;;;;4.30;94865.00;;;;7395321;19;20129;-75
2023/01/04 06:33:15;;;;;;;2.00;0.90;;;;;4.30;94851.00;;;;7394693;19;20662;-74
2023/01/04 06:35:43;;;;;;;2.50;0.83;;;;;4.10;94849.00;;;;7395628;19;20596;-75
2023/01/04 06:38:17;;;;;;;0.97;0.90;;;;;4.10;94852.00;;;;7394199;19;20152;-74
2023/01/04 06:40:44;;;;;;;1.23;0.93;;;;;4.20;94846.00;;;;7392838;19;20169;-74
2023/01/04 06:43:12;;;;;;;2.90;0.90;;;;;4.20;94856.00;;;;7392201;19;20522;-73
2023/01/04 06:45:46;;;;;;;1.13;0.97;;;;;4.30;94854.00;;;;7409575;19;20148;-75
2023/01/04 06:48:14;;;;;;;2.07;0.87;;;;;4.10;94844.00;;;;7408261;19;20212;-75
2023/01/04 06:50:44;;;;;;;1.27;0.87;;;;;4.20;94855.00;;;;7408264;19;20135;-74
2023/01/04 06:53:19;;;;;;;3.13;0.90;;;;;4.20;94856.00;;;;7409370;19;20128;-74
2023/01/04 06:55:46;;;;;;;1.23;0.90;;;;;4.20;94856.00;;;;7409446;19;20196;-74
2023/01/04 06:58:14;;;;;;;0.80;0.80;;;;;4.30;94850.00;;;;7411207;19;20204;-74
2023/01/04 07:00:53;;;;;;;2.13;0.83;;;;;4.50;94846.00;;;;7408869;19;20173;-74
2023/01/04 07:03:22;;;;;;;1.53;0.60;;;;;4.70;94856.00;;;;7404640;19;20163;-76
2023/01/04 07:06:11;;;;;;;0.70;0.60;;;;;4.50;94856.00;;;;7408635;19;20208;-75
2023/01/04 07:08:45;;;;;;;1.47;0.90;;;;;4.60;94848.00;;;;7408952;19;20157;-74
2023/01/04 07:11:19;;;;;;;0.60;0.60;;;;;4.60;94847.00;;;;7407942;19;20511;-74
2023/01/04 07:13:47;;;;;;;0.37;0.30;;;;;4.50;94862.00;;;;7410931;19;20136;-75
2023/01/04 07:16:15;;;;;;;3.20;0.50;;;;;4.50;94865.00;;;;7409304;19;20152;-75
2023/01/04 07:18:51;;;;;;;0.73;0.60;;;;;4.60;94856.00;;;;7408193;19;20149;-76
2023/01/04 07:21:19;;;;;;;0.40;0.30;;;;;4.60;94857.00;;;;7411081;19;20192;-74
2023/01/04 07:23:46;;;;;;;0.90;0.40;;;;;4.60;94851.00;;;;7407807;19;20137;-74
2023/01/04 07:26:22;;;;;;;1.83;0.40;;;;;4.60;94845.00;;;;7409862;19;20143;-75
2023/01/04 07:31:49;;;;;;;2.20;0.40;;;;;4.60;94844.00;;;;7411192;19;20156;-74
2023/01/04 07:34:19;;;;;;;1.50;0.47;;;;;4.60;94833.00;;;;7408448;19;20144;-75
2023/01/04 07:36:54;;;;;;;0.37;0.37;;;;;4.60;94842.00;;;;7407217;19;20170;-74
2023/01/04 07:39:23;;;;;;;0.47;0.37;;;;;4.60;94834.00;;;;7407622;19;20152;-74
2023/01/04 07:41:50;;;;;;;9.13;0.73;;;;;4.50;94825.00;;;;7407143;19;20484;-75
2023/01/04 07:44:26;;;;;;;1.53;0.30;;;;;4.50;94838.00;;;;7407983;19;20600;-73
2023/01/04 07:46:55;;;;;;;0.33;0.33;;;;;4.60;94824.00;;;;7407150;19;20145;-75
2023/01/04 07:49:23;;;;;;;1.33;0.50;;;;;4.60;94840.00;;;;7407336;19;20170;-76
2023/01/04 07:52:00;;;;;;;0.33;0.30;;;;;4.60;94829.00;;;;7403869;19;20133;-74
2023/01/04 07:54:28;;;;;;;0.60;0.40;;;;;4.60;94830.00;;;;7404249;19;20140;-74
2023/01/04 07:56:56;;;;;;;0.43;0.43;;;;;4.70;94821.00;;;;7399430;19;20189;-74
2023/01/04 07:59:30;;;;;;;1.20;0.50;;;;;4.70;94836.00;;;;7402333;19;20635;-74
2023/01/04 08:01:59;;;;;;;0.97;0.30;;;;;4.90;94826.00;;;;7402602;19;20156;-74
2023/01/04 08:04:28;;;;;;;0.80;0.60;;;;;4.90;94812.00;;;;7403214;19;20615;-74
2023/01/04 08:07:09;;;;;;;1.17;0.50;;;;;5.10;94809.00;;;;7398645;19;20188;-75
2023/01/04 08:09:36;;;;;;;3.47;0.50;;;;;5.10;94804.00;;;;7400896;19;20136;-76
2023/01/04 08:12:10;;;;;;;2.73;0.80;;;;;5.00;94808.00;;;;7394402;19;20156;-74
2023/01/04 08:14:38;;;;;;;2.67;0.70;;;;;5.00;94802.00;;;;7395784;19;20164;-74
2023/01/04 08:17:06;;;;;;;2.43;0.50;;;;;5.10;94814.00;;;;7399345;19;20477;-75
2023/01/04 08:19:40;;;;;;;2.63;0.73;;;;;5.20;94799.00;;;;7398249;19;20189;-74
2023/01/04 08:22:09;;;;;;;1.30;0.60;;;;;5.30;94806.00;;;;7393452;19;20181;-75
2023/01/04 08:24:38;;;;;;;1.10;0.53;;;;;5.20;94794.00;;;;7394617;19;20165;-75
2023/01/04 08:27:12;;;;;;;1.63;0.47;;;;;5.40;94788.00;;;;7398042;19;20139;-76
2023/01/04 08:29:40;;;;;;;2.40;0.60;;;;;5.40;94788.00;;;;7401655;19;20148;-74
2023/01/04 08:32:07;;;;;;;0.70;0.40;;;;;5.40;94789.00;;;;7396776;19;20160;-75
2023/01/04 08:34:41;;;;;;;6.87;0.50;;;;;5.50;94782.00;;;;7394118;19;20168;-76
2023/01/04 08:37:09;;;;;;;1.83;0.47;;;;;5.50;94794.00;;;;7398227;19;20145;-75
2023/01/04 08:39:38;;;;;;;2.13;0.60;;;;;5.60;94790.00;;;;7396694;19;20212;-74
2023/01/04 08:42:16;;;;;;;2.40;0.53;;;;;5.60;94791.00;;;;7398793;19;20140;-76
2023/01/04 08:44:59;;;;;;;2.73;0.57;;;;;5.60;94773.00;;;;7398877;19;20157;-76
2023/01/04 08:47:36;;;;;;;0.87;0.60;;;;;5.70;94776.00;;;;7399714;19;20146;-75
2023/01/04 08:50:04;;;;;;;1.80;0.70;;;;;5.80;94782.00;;;;7398186;19;20466;-76
2023/01/04 08:52:40;;;;;;;3.40;0.40;;;;;5.80;94784.00;;;;7399374;19;20152;-76
2023/01/04 08:55:15;;;;;;;1.43;0.80;;;;;5.80;94777.00;;;;7400295;19;20495;-77
2023/01/04 08:57:51;;;;;;;1.00;0.30;;;;;5.90;94796.00;;;;7397737;19;20208;-76
2023/01/04 09:00:25;;;;;;;1.70;0.50;;;;;5.80;94784.00;;;;7389322;19;20655;-74
2023/01/04 09:02:53;;;;;;;5.73;0.70;;;;;6.00;94787.00;;;;7395054;19;20184;-75
2023/01/04 09:05:22;;;;;;;0.93;0.50;;;;;6.10;94782.00;;;;7393938;19;20608;-76
2023/01/04 09:08:00;;;;;;;1.40;0.50;;;;;6.20;94799.00;;;;7394369;19;20137;-75
2023/01/04 09:10:27;;;;;;;2.47;0.60;;;;;6.20;94786.00;;;;7396328;19;20603;-76
2023/01/04 09:12:55;;;;;;;3.00;0.77;;;;;6.30;94781.00;;;;7396780;19;20125;-75
2023/01/04 09:15:34;;;;;;;2.30;0.80;;;;;6.30;94787.00;;;;7396376;19;20148;-74
2023/01/04 09:18:03;;;;;;;0.73;0.63;;;;;6.30;94775.00;;;;7392723;19;20153;-77
2023/01/04 09:20:50;;;;;;;1.10;0.70;;;;;6.30;94783.00;;;;7387930;19;20486;-74
2023/01/04 09:23:24;;;;;;;1.07;0.60;;;;;6.40;94784.00;;;;7394122;19;20148;-74
2023/01/04 09:25:52;;;;;;;2.93;0.57;;;;;6.50;94782.00;;;;7390083;19;20165;-74
2023/01/04 09:28:23;;;;;;;0.87;0.70;;;;;6.40;94782.00;;;;7387045;19;20140;-74
2023/01/04 09:31:03;;;;;;;2.80;0.73;;;;;6.40;94801.00;;;;7392640;19;20611;-74
2023/01/04 09:33:31;;;;;;;0.90;0.50;;;;;6.50;94793.00;;;;7390090;19;20149;-76
2023/01/04 09:36:27;;;;;;;2.60;0.60;;;;;6.50;94801.00;;;;7395531;19;20128;-76
2023/01/04 09:38:55;;;;;;;0.73;0.47;;;;;6.50;94794.00;;;;7395002;19;20129;-75
2023/01/04 09:41:34;;;;;;;0.83;0.30;;;;;6.50;94800.00;;;;7392303;19;20595;-76
2023/01/04 09:44:22;;;;;;;1.20;0.63;;;;;6.50;94781.00;;;;7396779;19;20151;-76
2023/01/04 09:47:31;;;;;;;2.33;0.80;;;;;6.70;94794.00;;;;7387867;19;20163;-74
2023/01/04 09:50:12;;;;;;;2.57;0.47;;;;;6.50;94795.00;;;;7390030;19;20136;-75
2023/01/04 09:53:15;;;;;;;1.03;0.70;;;;;6.60;94790.00;;;;7391888;19;20228;-76
2023/01/04 09:55:48;;;;;;;2.80;0.53;;;;;6.60;94798.00;;;;7394389;19;20595;-75
2023/01/04 09:58:38;;;;;;;2.00;0.60;;;;;6.70;94782.00;;;;7393910;19;20229;-75
2023/01/04 10:01:15;;;;;;;2.30;0.77;;;;;6.70;94787.00;;;;7386540;19;20247;-74
2023/01/04 10:04:05;;;;;;;2.67;0.87;;;;;6.50;94798.00;;;;7394160;19;20734;-74
2023/01/04 10:06:39;;;;;;;1.27;0.60;;;;;6.60;94787.00;;;;7387956;19;20196;-75
2023/01/04 10:09:15;;;;;;;2.90;0.73;;;;;6.70;94785.00;;;;7390505;19;20220;-74
2023/01/04 10:11:49;;;;;;;4.03;0.67;;;;;6.80;94781.00;;;;7394578;19;20153;-74
2023/01/04 10:14:45;;;;;;;1.10;0.57;;;;;7.00;94794.00;;;;7396685;19;20473;-77
2023/01/04 10:17:30;;;;;;;3.23;0.57;;;;;6.90;94779.00;;;;7399207;19;20144;-73
2023/01/04 10:20:43;;;;;;;0.50;0.50;;;;;6.90;94777.00;;;;7391420;19;20156;-74
2023/01/04 10:23:50;;;;;;;0.93;0.60;;;;;7.00;94768.00;;;;7394231;19;20216;-74
2023/01/04 10:26:47;;;;;;;1.73;1.23;;;;;7.00;94773.00;;;;7394657;19;20166;-76
2023/01/04 10:29:47;;;;;;;5.10;0.77;;;;;7.10;94762.00;;;;7395742;19;20985;-76
2023/01/04 10:32:42;;;;;;;1.13;0.47;;;;;7.20;94749.00;;;;7391520;19;20190;-76
2023/01/04 10:35:22;;;;;;;0.40;0.40;;;;;7.40;94758.00;;;;7395938;19;20204;-73
2023/01/04 10:38:03;;;;;;;1.17;0.57;;;;;7.50;94733.00;;;;7393410;19;20128;-76
2023/01/04 10:40:36;;;;;;;1.07;0.63;;;;;7.40;94740.00;;;;7394573;19;20132;-75
2023/01/04 10:43:35;;;;;;;1.90;0.60;;;;;7.50;94725.00;;;;7395706;19;20136;-76
2023/01/04 10:47:03;;;;;;;0.80;0.50;;;;;7.40;94730.00;;;;7394010;19;20144;-75
2023/01/04 10:49:55;;;;;;;0.63;0.63;;;;;7.50;94711.00;;;;7389495;19;20614;-76
2023/01/04 10:53:01;;;;;;;1.93;0.87;;;;;7.70;94708.00;;;;7387830;19;20137;-76
2023/01/04 10:55:46;;;;;;;2.37;0.60;;;;;7.70;94710.00;;;;7391018;19;20683;-74
2023/01/04 10:58:54;;;;;;;1.97;0.63;;;;;7.80;94693.00;;;;7393372;19;20129;-74
2023/01/04 11:01:49;;;;;;;4.00;0.70;;;;;7.90;94701.00;;;;7387711;19;20178;-75
2023/01/04 11:04:31;;;;;;;0.50;0.50;;;;;7.70;94709.00;;;;7393987;19;20208;-76
2023/01/04 11:07:52;;;;;;;3.27;2.60;;;;;7.90;94691.00;;;;7393355;19;20180;-75
2023/01/04 11:10:29;;;;;;;3.47;2.23;;;;;7.90;94697.00;;;;7395055;19;20141;-76
2023/01/04 11:13:03;;;;;;;1.87;1.23;;;;;8.10;94684.00;;;;7392218;19;20978;-74
2023/01/04 11:15:31;;;;;;;6.13;4.37;;;;;8.10;94699.00;;;;7391893;19;20756;-76
2023/01/04 11:18:03;;;;;;;7.23;3.90;;;;;8.10;94682.00;;;;7393065;19;20459;-75
2023/01/04 11:20:37;;;;;;;6.90;2.67;;;;;8.20;94695.00;;;;7392018;19;20141;-75
2023/01/04 11:23:18;;;;;;;3.93;1.70;;;;;8.40;94697.00;;;;7393501;19;20148;-74
2023/01/04 11:25:56;;;;;;;1.50;1.07;;;;;8.20;94697.00;;;;7390649;19;20149;-76
2023/01/04 11:28:33;;;;;;;0.40;0.40;;;;;8.20;94672.00;;;;7392872;19;20136;-75
2023/01/04 11:31:10;;;;;;;2.00;0.50;;;;;8.20;94689.00;;;;7391189;19;20161;-75
2023/01/04 11:33:56;;;;;;;0.57;0.47;;;;;8.30;94679.00;;;;7400594;19;20592;-75
2023/01/04 11:36:30;;;;;;;1.83;0.50;;;;;8.40;94671.00;;;;7398417;19;20885;-76
2023/01/04 11:38:58;;;;;;;0.90;0.40;;;;;8.50;94679.00;;;;7397872;19;20449;-75
2023/01/04 11:41:26;;;;;;;0.63;0.40;;;;;8.40;94673.00;;;;7398297;19;20167;-76
2023/01/04 11:44:04;;;;;;;0.73;0.50;;;;;8.50;94666.00;;;;7398332;19;20599;-74
2023/01/04 11:46:33;;;;;;;0.90;0.40;;;;;8.40;94670.00;;;;7396137;19;20196;-75
2023/01/04 11:49:19;;;;;;;0.40;0.40;;;;;8.50;94671.00;;;;7400897;19;20147;-74
2023/01/04 11:51:46;;;;;;;0.43;0.40;;;;;8.40;94667.00;;;;7403168;19;20133;-76
2023/01/04 11:54:21;;;;;;;0.67;0.53;;;;;8.50;94662.00;;;;7403333;19;20591;-75
2023/01/04 11:57:02;;;;;;;0.80;0.67;;;;;8.60;94660.00;;;;7402972;19;20223;-75
2023/01/04 12:00:16;;;;;;;3.40;0.77;;;;;8.60;94671.00;;;;7403206;19;20625;-76
2023/01/04 12:02:44;;;;;;;1.10;0.70;;;;;8.60;94682.00;;;;7400537;19;20635;-75
2023/01/04 12:05:41;;;;;;;1.23;0.30;;;;;8.50;94678.00;;;;7400702;19;20583;-76
2023/01/04 12:08:42;;;;;;;0.60;0.50;;;;;8.50;94693.00;;;;7404249;19;20453;-75
2023/01/04 12:11:27;;;;;;;6.47;4.43;;;;;8.70;94693.00;;;;7402182;19;20137;-75
2023/01/04 12:13:58;;;;;;;8.43;5.27;;;;;8.70;94683.00;;;;7397739;19;20238;-73
2023/01/04 12:16:46;;;;;;;18.13;11.10;;;;;8.70;94677.00;;;;7400609;19;20149;-76
2023/01/04 12:19:16;;;;;;;2.53;1.73;;;;;8.60;94679.00;;;;7402745;19;20210;-75
2023/01/04 12:22:21;;;;;;;2.40;2.20;;;;;8.70;94669.00;;;;7398269;19;20145;-76
2023/01/04 12:24:49;;;;;;;0.97;0.53;;;;;8.50;94661.00;;;;7401494;19;20529;-76
2023/01/04 12:27:27;;;;;;;1.70;1.17;;;;;8.40;94669.00;;;;7402003;19;20188;-75
2023/01/04 12:30:00;;;;;;;0.67;0.67;;;;;8.40;94662.00;;;;7399334;19;20137;-75
2023/01/04 12:32:34;;;;;;;0.73;0.53;;;;;8.10;94658.00;;;;7403205;19;20564;-76
2023/01/04 12:35:24;;;;;;;0.33;0.33;;;;;8.20;94649.00;;;;7401113;19;20199;-75
2023/01/04 12:37:59;;;;;;;1.70;0.70;;;;;8.10;94647.00;;;;7399705;19;20623;-75
2023/01/04 12:40:48;;;;;;;0.60;0.50;;;;;8.20;94638.00;;;;7400115;19;20576;-76
2023/01/04 12:43:26;;;;;;;0.30;0.30;;;;;8.30;94655.00;;;;7402062;19;20117;-75
2023/01/04 12:49:28;;;;;;;0.40;0.40;;;;;8.40;94643.00;;;;7398436;19;20144;-75
2023/01/04 12:52:08;;;;;;;1.43;0.70;;;;;8.20;94626.00;;;;7401456;19;20170;-76
2023/01/04 12:55:23;;;;;;;0.50;0.50;;;;;8.30;94623.00;;;;7399774;19;20465;-75
2023/01/04 12:57:51;;;;;;;3.23;2.47;;;;;8.30;94610.00;;;;7402782;19;20151;-74
2023/01/04 13:00:47;;;;;;;0.80;0.73;;;;;8.50;94604.00;;;;7400300;19;20603;-74
2023/01/04 13:03:15;;;;;;;4.97;0.93;;;;;8.60;94614.00;;;;7396518;19;20525;-76
2023/01/04 13:06:03;;;;;;;1.07;0.53;;;;;8.40;94622.00;;;;7396556;19;20243;-74
2023/01/04 13:08:38;;;;;;;1.13;0.60;;;;;8.60;94604.00;;;;7400204;19;20124;-75
2023/01/04 13:11:39;;;;;;;1.00;0.63;;;;;8.50;94583.00;;;;7400528;19;20136;-76
2023/01/04 13:14:22;;;;;;;0.30;0.30;;;;;8.50;94600.00;;;;7399839;19;20137;-73
2023/01/04 13:17:13;;;;;;;1.17;0.50;;;;;8.60;94608.00;;;;7400063;19;20133;-74
2023/01/04 13:19:42;;;;;;;2.03;0.60;;;;;8.50;94612.00;;;;7396009;19;20137;-77
2023/01/04 13:22:29;;;;;;;0.70;0.50;;;;;8.50;94598.00;;;;7395090;19;20128;-75
2023/01/04 13:24:58;;;;;;;0.60;0.50;;;;;8.50;94611.00;;;;7395917;19;20176;-76
2023/01/04 13:27:35;;;;;;;0.80;0.60;;;;;8.50;94607.00;;;;7399482;19;20140;-75
2023/01/04 13:30:03;;;;;;;1.07;0.40;;;;;8.30;94598.00;;;;7400000;19;20144;-74
2023/01/04 13:32:32;;;;;;;0.43;0.37;;;;;8.50;94605.00;;;;7399637;19;20181;-75
2023/01/04 13:35:29;;;;;;;1.23;0.37;;;;;8.60;94604.00;;;;7398072;19;20128;-76
2023/01/04 13:37:59;;;;;;;0.43;0.40;;;;;8.50;94596.00;;;;7397158;19;20157;-75
2023/01/04 13:40:36;;;;;;;0.47;0.40;;;;;8.60;94598.00;;;;7398297;19;20155;-74
2023/01/04 13:43:11;;;;;;;0.50;0.47;;;;;8.70;94597.00;;;;7397322;19;20136;-76
2023/01/04 13:45:57;;;;;;;1.70;0.50;;;;;8.70;94597.00;;;;7398175;19;20161;-75
2023/01/04 13:48:40;;;;;;;0.30;0.30;;;;;8.70;94585.00;;;;7392537;19;20167;-75
2023/01/04 13:51:33;;;;;;;0.97;0.50;;;;;8.60;94587.00;;;;7396252;19;20160;-75
2023/01/04 13:54:20;;;;;;;0.63;0.37;;;;;8.60;94580.00;;;;7395663;19;20159;-74
2023/01/04 13:57:08;;;;;;;0.30;0.30;;;;;8.70;94587.00;;;;7398433;19;20121;-75
2023/01/04 13:59:36;;;;;;;0.70;0.53;;;;;8.70;94578.00;;;;7400030;19;20132;-75
2023/01/04 14:02:18;;;;;;;2.10;0.60;;;;;8.90;94586.00;;;;7394297;19;20168;-75
2023/01/04 14:04:49;;;;;;;0.80;0.60;;;;;8.90;94573.00;;;;7392336;19;20173;-74
2023/01/04 14:07:32;;;;;;;0.77;0.43;;;;;8.90;94573.00;;;;7392060;19;20596;-74
2023/01/04 14:10:00;;;;;;;1.53;0.40;;;;;9.00;94572.00;;;;7394928;19;20132;-76
2023/01/04 14:12:35;;;;;;;0.30;0.30;;;;;9.10;94564.00;;;;7396080;19;20207;-74